Time;durP1;ratioP1;P1;durP2;ratioP2;P2;SDS_P1;SDS_P2;PMS_P1;PMS_P2;Temp;Humidity;BMP_temperature;BMP_pressure;BME280_temperature;BME280_humidity;BME280_pressure;Samples;Min_cycle;Max_cycle;Signal;HPM_P1;HPM_P2
2023/07/03 00:02:07;;;;;;;20.73;11.27;;;13.70;99.90;;;;;;5034556;28;20187;-57
2023/07/03 00:04:37;;;;;;;20.63;11.40;;;13.70;99.90;;;;;;5040897;28;20265;-57
2023/07/03 00:07:04;;;;;;;22.80;10.80;;;13.70;99.90;;;;;;5039382;28;20183;-55
2023/07/03 00:09:29;;;;;;;24.83;10.67;;;13.70;99.90;;;;;;5034689;28;20437;-57
2023/07/03 00:11:55;;;;;;;22.60;11.60;;;13.60;99.90;;;;;;5035016;28;20931;-56
2023/07/03 00:14:20;;;;;;;25.20;11.97;;;13.60;99.90;;;;;;5043555;28;20218;-58
2023/07/03 00:16:46;;;;;;;28.00;12.17;;;13.60;99.90;;;;;;5033631;28;20175;-57
2023/07/03 00:19:13;;;;;;;22.50;10.80;;;13.50;99.90;;;;;;5038188;28;20207;-56
2023/07/03 00:21:43;;;;;;;20.07;10.80;;;13.50;99.90;;;;;;5041843;28;20213;-57
2023/07/03 00:24:13;;;;;;;22.80;10.97;;;13.50;99.90;;;;;;5039819;28;20441;-58
2023/07/03 00:26:39;;;;;;;18.60;10.80;;;13.40;99.90;;;;;;5035630;28;20528;-57
2023/07/03 00:29:05;;;;;;;20.93;10.50;;;13.40;99.90;;;;;;5039878;28;20539;-56
2023/07/03 00:31:32;;;;;;;20.20;10.70;;;13.40;99.90;;;;;;5036350;28;20473;-57
2023/07/03 00:34:00;;;;;;;22.80;12.03;;;13.30;99.90;;;;;;5035027;28;20449;-57
2023/07/03 00:36:26;;;;;;;18.07;9.97;;;13.30;99.90;;;;;;5036115;28;20430;-57
2023/07/03 00:38:57;;;;;;;19.07;9.83;;;13.30;99.90;;;;;;5039764;28;20539;-57
2023/07/03 00:41:24;;;;;;;17.80;10.17;;;13.30;99.90;;;;;;5040389;28;20663;-57
2023/07/03 00:43:49;;;;;;;23.60;11.77;;;13.30;99.90;;;;;;5039363;28;20819;-56
2023/07/03 00:46:15;;;;;;;21.13;10.87;;;13.20;99.90;;;;;;5037091;28;20438;-56
2023/07/03 00:48:41;;;;;;;22.17;11.10;;;13.20;99.90;;;;;;5038660;28;20191;-56
2023/07/03 00:51:10;;;;;;;20.60;10.17;;;13.20;99.90;;;;;;5037617;28;21047;-56
2023/07/03 00:53:36;;;;;;;22.73;10.50;;;13.10;99.90;;;;;;5036962;28;20438;-56
2023/07/03 00:56:03;;;;;;;17.63;9.37;;;13.10;99.90;;;;;;5041017;28;20437;-56
2023/07/03 00:58:29;;;;;;;17.70;9.17;;;13.10;99.90;;;;;;5033865;28;20176;-56
2023/07/03 01:01:07;;;;;;;24.37;10.63;;;13.00;99.90;;;;;;5035888;28;20465;-57
2023/07/03 01:03:37;;;;;;;19.77;9.70;;;13.00;99.90;;;;;;5039341;28;20222;-57
2023/07/03 01:06:06;;;;;;;18.50;9.43;;;13.00;99.90;;;;;;5034677;28;20962;-58
2023/07/03 01:08:33;;;;;;;20.13;9.20;;;13.00;99.90;;;;;;5035473;28;20425;-56
2023/07/03 01:10:59;;;;;;;19.27;9.83;;;12.90;99.90;;;;;;5037090;28;20538;-57
2023/07/03 01:13:28;;;;;;;18.10;10.00;;;12.90;99.90;;;;;;5033926;28;20499;-56
2023/07/03 01:15:55;;;;;;;17.63;9.97;;;12.90;99.90;;;;;;5037770;28;20488;-57
2023/07/03 01:18:22;;;;;;;17.67;9.53;;;12.90;99.90;;;;;;5037037;28;20584;-56
2023/07/03 01:21:16;;;;;;;20.17;10.27;;;12.90;99.90;;;;;;5033952;28;20498;-58
2023/07/03 01:23:51;;;;;;;18.80;10.33;;;12.90;99.90;;;;;;5034910;28;20430;-57
2023/07/03 01:26:19;;;;;;;18.07;10.30;;;12.90;99.90;;;;;;5034095;28;20517;-56
2023/07/03 01:28:50;;;;;;;17.43;9.20;;;12.90;99.90;;;;;;5037220;28;20460;-56
2023/07/03 01:31:16;;;;;;;22.93;10.50;;;12.90;99.90;;;;;;5036006;28;20506;-57
2023/07/03 01:33:44;;;;;;;20.00;9.57;;;12.90;99.90;;;;;;5038267;28;21392;-56
2023/07/03 01:36:12;;;;;;;22.60;10.87;;;12.90;99.90;;;;;;5042934;28;20452;-58
2023/07/03 01:38:41;;;;;;;26.80;10.93;;;12.90;99.90;;;;;;5037133;28;20438;-56
2023/07/03 01:41:08;;;;;;;19.37;9.97;;;12.90;99.90;;;;;;5035919;28;21110;-56
2023/07/03 01:43:35;;;;;;;22.87;10.70;;;12.90;99.90;;;;;;5029094;28;20517;-57
2023/07/03 01:46:01;;;;;;;19.63;11.30;;;13.00;99.90;;;;;;5032493;28;20975;-56
2023/07/03 01:48:31;;;;;;;19.80;9.83;;;13.00;99.90;;;;;;5028348;28;20441;-56
2023/07/03 01:50:58;;;;;;;20.23;10.57;;;13.00;99.90;;;;;;5030661;28;20259;-56
2023/07/03 01:53:28;;;;;;;25.37;10.07;;;13.00;99.90;;;;;;5033219;28;20431;-57
2023/07/03 01:56:10;;;;;;;23.30;11.50;;;13.00;99.90;;;;;;5035099;28;20437;-58
2023/07/03 01:58:49;;;;;;;21.10;9.87;;;13.00;99.90;;;;;;5030605;28;20521;-56
2023/07/03 02:01:30;;;;;;;17.27;9.70;;;13.00;99.90;;;;;;5029162;28;21079;-56
2023/07/03 02:04:04;;;;;;;17.60;9.90;;;13.00;99.90;;;;;;5033793;28;20441;-57
2023/07/03 02:06:36;;;;;;;24.83;11.77;;;13.10;99.90;;;;;;5034108;28;20810;-57
2023/07/03 02:09:05;;;;;;;22.90;10.73;;;13.10;99.90;;;;;;5030976;28;20435;-57
2023/07/03 02:11:30;;;;;;;23.47;10.43;;;13.10;99.90;;;;;;5032205;28;20590;-58
2023/07/03 02:13:56;;;;;;;17.73;9.87;;;13.20;99.90;;;;;;5033362;28;21038;-58
2023/07/03 02:16:22;;;;;;;32.53;10.67;;;13.20;99.90;;;;;;5026970;28;20180;-56
2023/07/03 02:18:49;;;;;;;21.30;10.83;;;13.20;99.90;;;;;;5034956;28;20194;-57
2023/07/03 02:21:15;;;;;;;18.80;9.87;;;13.20;99.90;;;;;;5029870;28;20457;-58
2023/07/03 02:23:41;;;;;;;22.97;10.80;;;13.30;99.90;;;;;;5035930;28;20455;-57
2023/07/03 02:26:07;;;;;;;21.53;10.27;;;13.30;99.90;;;;;;5032932;28;20431;-57
2023/07/03 02:28:33;;;;;;;17.40;9.83;;;13.30;99.90;;;;;;5043527;28;20491;-58
2023/07/03 02:30:59;;;;;;;19.77;11.60;;;13.30;99.90;;;;;;5036475;28;20223;-57
2023/07/03 02:33:25;;;;;;;21.77;10.23;;;13.30;99.90;;;;;;5029120;28;20186;-57
2023/07/03 02:35:50;;;;;;;23.40;11.80;;;13.30;99.90;;;;;;5034494;28;20431;-57
2023/07/03 02:38:16;;;;;;;20.23;10.40;;;13.20;99.90;;;;;;5037162;28;20190;-57
2023/07/03 02:40:42;;;;;;;16.87;9.10;;;13.20;99.90;;;;;;5038188;28;20591;-56
2023/07/03 02:43:09;;;;;;;17.90;9.60;;;13.10;99.90;;;;;;5039814;28;20211;-57
2023/07/03 02:45:39;;;;;;;22.40;10.50;;;13.00;99.90;;;;;;5034812;28;20428;-57
2023/07/03 02:48:07;;;;;;;16.07;10.40;;;13.00;99.90;;;;;;5037467;28;20444;-57
2023/07/03 02:50:32;;;;;;;21.23;9.30;;;13.00;99.90;;;;;;5036256;28;20445;-57
2023/07/03 02:52:58;;;;;;;20.10;9.57;;;13.00;99.90;;;;;;5040462;28;20444;-57
2023/07/03 02:55:24;;;;;;;21.03;10.23;;;13.10;99.90;;;;;;5044431;28;20610;-57
2023/07/03 02:57:50;;;;;;;18.47;9.10;;;13.10;99.90;;;;;;5042133;28;20175;-56
2023/07/03 03:00:16;;;;;;;18.70;9.23;;;13.10;99.90;;;;;;5029809;28;20570;-58
2023/07/03 03:02:44;;;;;;;21.90;10.23;;;13.10;99.90;;;;;;5042158;28;20422;-56
2023/07/03 03:05:09;;;;;;;24.00;9.80;;;13.20;99.90;;;;;;5042662;28;20449;-57
2023/07/03 03:07:36;;;;;;;21.23;10.17;;;13.20;99.90;;;;;;5034437;28;21818;-57
2023/07/03 03:10:01;;;;;;;16.87;9.90;;;13.20;99.90;;;;;;5037536;28;20865;-57
2023/07/03 03:12:27;;;;;;;17.13;9.57;;;13.20;99.90;;;;;;5039772;28;20457;-57
2023/07/03 03:14:53;;;;;;;28.77;11.10;;;13.20;99.90;;;;;;5037171;28;20688;-57
2023/07/03 03:17:18;;;;;;;24.17;10.90;;;13.20;99.90;;;;;;5044617;28;20234;-57
2023/07/03 03:19:44;;;;;;;19.87;10.27;;;13.20;99.90;;;;;;5033324;28;20207;-57
2023/07/03 03:22:10;;;;;;;26.53;10.53;;;13.20;99.90;;;;;;5038934;28;20214;-58
2023/07/03 03:24:35;;;;;;;23.10;11.17;;;13.30;99.90;;;;;;5039754;28;20199;-58
2023/07/03 03:27:06;;;;;;;21.60;10.93;;;13.30;99.90;;;;;;5044780;28;20245;-58
2023/07/03 03:29:35;;;;;;;24.33;10.03;;;13.30;99.90;;;;;;5047599;28;20187;-58
2023/07/03 03:32:00;;;;;;;21.27;10.53;;;13.30;99.90;;;;;;5046386;28;20565;-58
2023/07/03 03:34:26;;;;;;;24.63;9.77;;;13.30;99.90;;;;;;5043448;28;20520;-58
2023/07/03 03:36:51;;;;;;;21.07;10.20;;;13.40;99.90;;;;;;5038332;28;20176;-57
2023/07/03 03:39:17;;;;;;;19.37;10.27;;;13.30;99.90;;;;;;5041729;28;20196;-57
2023/07/03 03:41:43;;;;;;;19.30;10.30;;;13.30;99.90;;;;;;5043150;28;20277;-57
2023/07/03 03:44:08;;;;;;;18.90;10.30;;;13.30;99.90;;;;;;5039346;28;20335;-58
2023/07/03 03:46:34;;;;;;;22.00;10.70;;;13.30;99.90;;;;;;5041627;28;20230;-58
2023/07/03 03:49:00;;;;;;;18.17;10.17;;;13.40;99.90;;;;;;5042929;28;20581;-57
2023/07/03 03:51:26;;;;;;;24.03;10.23;;;13.40;99.90;;;;;;5041009;28;20215;-58
2023/07/03 03:53:53;;;;;;;18.63;9.63;;;13.40;99.90;;;;;;5038339;28;20435;-56
2023/07/03 03:56:19;;;;;;;18.23;9.97;;;13.40;99.90;;;;;;5041515;28;20941;-57
2023/07/03 03:58:46;;;;;;;18.93;10.77;;;13.40;99.90;;;;;;5041879;28;20874;-57
2023/07/03 04:01:12;;;;;;;22.47;11.17;;;13.40;99.90;;;;;;5048633;28;20456;-58
2023/07/03 04:03:37;;;;;;;25.63;10.87;;;13.40;99.90;;;;;;5045769;28;20440;-57
2023/07/03 04:06:03;;;;;;;19.73;10.20;;;13.40;99.90;;;;;;5040331;28;20441;-57
2023/07/03 04:08:29;;;;;;;21.93;11.53;;;13.40;99.90;;;;;;5038115;28;20180;-56
2023/07/03 04:10:54;;;;;;;20.97;9.93;;;13.40;99.90;;;;;;5039062;28;20481;-57
2023/07/03 04:13:20;;;;;;;21.70;10.90;;;13.40;99.90;;;;;;5041316;28;20175;-58
2023/07/03 04:16:04;;;;;;;19.37;10.17;;;13.40;99.90;;;;;;5044615;28;20812;-58
2023/07/03 04:18:31;;;;;;;21.60;10.70;;;13.50;99.90;;;;;;5038233;28;20179;-57
2023/07/03 04:20:57;;;;;;;17.50;10.37;;;13.50;99.90;;;;;;5033308;28;20453;-57
2023/07/03 04:23:24;;;;;;;27.67;11.67;;;13.50;99.90;;;;;;5040873;28;20437;-57
2023/07/03 04:25:50;;;;;;;21.23;11.10;;;13.50;99.90;;;;;;5039715;28;20425;-57
2023/07/03 04:28:19;;;;;;;23.57;12.10;;;13.60;99.90;;;;;;5036154;28;22361;-57
2023/07/03 04:30:46;;;;;;;21.27;11.23;;;13.50;99.90;;;;;;5026956;28;20499;-57
2023/07/03 04:33:11;;;;;;;23.90;11.03;;;13.60;99.90;;;;;;5035714;28;20430;-57
2023/07/03 04:35:37;;;;;;;18.50;9.80;;;13.60;99.90;;;;;;5028469;28;20434;-55
2023/07/03 04:38:03;;;;;;;22.10;10.63;;;13.70;99.90;;;;;;5026526;28;20195;-56
2023/07/03 04:40:29;;;;;;;20.27;9.60;;;13.70;99.90;;;;;;5029306;28;20473;-57
2023/07/03 04:42:55;;;;;;;19.73;10.30;;;13.80;99.90;;;;;;5029105;28;20441;-58
2023/07/03 04:45:24;;;;;;;19.07;11.43;;;13.80;99.90;;;;;;5038809;28;20441;-58
2023/07/03 04:47:50;;;;;;;21.00;9.57;;;13.90;99.90;;;;;;5039406;28;20191;-57
2023/07/03 04:50:16;;;;;;;21.30;10.00;;;14.00;99.90;;;;;;5035198;28;20533;-58
2023/07/03 04:52:43;;;;;;;19.17;10.90;;;14.10;99.90;;;;;;5031558;28;20592;-52
2023/07/03 04:55:11;;;;;;;28.27;9.97;;;14.10;99.90;;;;;;5029057;28;20686;-53
2023/07/03 04:57:38;;;;;;;20.30;9.97;;;14.10;99.90;;;;;;5024012;28;20791;-52
2023/07/03 05:00:14;;;;;;;19.20;10.40;;;14.20;99.90;;;;;;5031948;28;20544;-51
2023/07/03 05:02:41;;;;;;;16.23;9.20;;;14.20;99.90;;;;;;5024894;28;20429;-53
2023/07/03 05:05:07;;;;;;;21.20;9.53;;;14.30;99.90;;;;;;5043297;28;20429;-52
2023/07/03 05:07:32;;;;;;;18.27;9.67;;;14.30;99.90;;;;;;5045921;28;20771;-52
2023/07/03 05:09:58;;;;;;;17.03;8.87;;;14.40;99.90;;;;;;5043826;28;20487;-53
2023/07/03 05:12:24;;;;;;;16.67;9.03;;;14.50;99.90;;;;;;5035028;28;20207;-54
2023/07/03 05:14:49;;;;;;;17.97;9.43;;;14.50;99.90;;;;;;5044516;28;20579;-52
2023/07/03 05:17:15;;;;;;;22.53;10.00;;;14.60;99.90;;;;;;5042590;28;20215;-52
2023/07/03 05:19:40;;;;;;;15.20;8.93;;;14.70;99.90;;;;;;5037295;28;20203;-52
2023/07/03 05:22:06;;;;;;;19.80;9.67;;;14.80;99.90;;;;;;5046639;28;20266;-52
2023/07/03 05:24:32;;;;;;;15.03;8.57;;;14.80;99.50;;;;;;5040991;28;20825;-51
2023/07/03 05:26:57;;;;;;;20.10;9.70;;;14.90;97.60;;;;;;5043242;28;20230;-52
2023/07/03 05:29:23;;;;;;;16.60;8.43;;;14.90;96.70;;;;;;5040158;28;20187;-53
2023/07/03 05:31:48;;;;;;;22.70;8.17;;;14.80;96.50;;;;;;5036651;28;20673;-52
2023/07/03 05:34:14;;;;;;;16.60;8.87;;;14.90;96.80;;;;;;5046116;28;20820;-52
2023/07/03 05:36:40;;;;;;;14.80;8.57;;;14.90;96.50;;;;;;5035847;28;20183;-52
2023/07/03 05:39:05;;;;;;;11.47;7.60;;;15.00;96.40;;;;;;5038418;28;20192;-52
2023/07/03 05:41:31;;;;;;;15.40;8.50;;;15.00;96.30;;;;;;5041165;28;20210;-53
2023/07/03 05:43:56;;;;;;;23.00;8.87;;;15.00;96.20;;;;;;5039393;28;20203;-52
2023/07/03 05:46:22;;;;;;;16.93;7.83;;;15.10;96.60;;;;;;5034549;28;20187;-54
2023/07/03 05:48:49;;;;;;;16.03;8.07;;;15.10;96.20;;;;;;5028906;28;20677;-53
2023/07/03 05:51:14;;;;;;;18.50;8.17;;;15.20;96.50;;;;;;5027515;28;20221;-53
2023/07/03 05:53:40;;;;;;;18.70;8.70;;;15.20;96.10;;;;;;5031175;28;20434;-52
2023/07/03 05:56:05;;;;;;;17.47;8.67;;;15.30;95.60;;;;;;5034464;28;20190;-54
2023/07/03 05:58:32;;;;;;;13.77;8.70;;;15.40;95.60;;;;;;5035736;28;20241;-59
2023/07/03 06:00:59;;;;;;;20.50;8.70;;;15.40;95.60;;;;;;5038966;28;20213;-60
2023/07/03 06:03:25;;;;;;;16.07;8.33;;;15.50;95.60;;;;;;5046267;28;20437;-57
2023/07/03 06:05:51;;;;;;;15.60;8.30;;;15.60;95.40;;;;;;5040392;28;20430;-57
2023/07/03 06:08:17;;;;;;;18.80;8.33;;;15.60;95.20;;;;;;5031423;28;20653;-55
2023/07/03 06:10:45;;;;;;;15.87;8.60;;;15.70;94.70;;;;;;5030832;28;20484;-57
2023/07/03 06:13:10;;;;;;;25.23;9.20;;;15.80;94.70;;;;;;5024855;28;20958;-54
2023/07/03 06:15:36;;;;;;;14.57;7.83;;;15.80;94.70;;;;;;5029255;28;20433;-57
2023/07/03 06:18:05;;;;;;;18.50;8.70;;;15.90;94.70;;;;;;5034698;28;20175;-53
2023/07/03 06:20:30;;;;;;;15.43;7.90;;;16.00;94.40;;;;;;5036361;28;20853;-55
2023/07/03 06:22:56;;;;;;;21.30;8.77;;;16.10;94.30;;;;;;5036650;28;20441;-54
2023/07/03 06:25:22;;;;;;;18.53;8.67;;;16.10;94.50;;;;;;5033568;28;20195;-54
2023/07/03 06:27:48;;;;;;;15.20;9.23;;;16.20;94.10;;;;;;5032520;28;20211;-53
2023/07/03 06:30:14;;;;;;;18.90;8.43;;;16.30;93.00;;;;;;5036631;28;20261;-53
2023/07/03 06:32:40;;;;;;;17.00;8.83;;;16.40;92.50;;;;;;5037970;28;20965;-55
2023/07/03 06:35:06;;;;;;;16.57;8.43;;;16.40;91.90;;;;;;5043439;28;20444;-53
2023/07/03 06:37:32;;;;;;;17.90;8.57;;;16.50;92.00;;;;;;5048719;28;20667;-54
2023/07/03 06:39:58;;;;;;;19.87;9.20;;;16.60;92.00;;;;;;5044461;28;20472;-54
2023/07/03 06:42:24;;;;;;;21.40;8.17;;;16.70;92.10;;;;;;5034639;28;20180;-53
2023/07/03 06:44:49;;;;;;;16.40;8.87;;;16.70;91.00;;;;;;5041485;28;20614;-55
2023/07/03 06:47:15;;;;;;;18.33;8.00;;;16.80;90.50;;;;;;5036418;28;20191;-54
2023/07/03 06:49:41;;;;;;;20.63;8.00;;;16.90;87.50;;;;;;5041072;28;20199;-56
2023/07/03 06:52:08;;;;;;;15.53;7.73;;;16.90;80.30;;;;;;5043633;28;20676;-54
2023/07/03 06:54:33;;;;;;;17.93;8.23;;;16.90;74.90;;;;;;5047513;28;20183;-56
2023/07/03 06:56:59;;;;;;;28.63;8.20;;;16.90;74.60;;;;;;5035010;28;22214;-55
2023/07/03 06:59:25;;;;;;;15.10;7.07;;;17.00;71.70;;;;;;5046732;28;20651;-55
2023/07/03 07:01:51;;;;;;;20.67;8.27;;;17.00;70.30;;;;;;5034685;28;20512;-55
2023/07/03 07:04:16;;;;;;;20.80;9.13;;;17.00;69.70;;;;;;5044498;28;20182;-55
2023/07/03 07:06:42;;;;;;;14.57;7.53;;;17.00;67.70;;;;;;5028924;28;20186;-55
2023/07/03 07:09:08;;;;;;;23.10;8.10;;;17.00;67.00;;;;;;5033312;28;20179;-56
2023/07/03 07:11:35;;;;;;;16.60;7.50;;;17.00;66.60;;;;;;5036390;28;20218;-55
2023/07/03 07:14:03;;;;;;;18.10;7.90;;;17.10;67.00;;;;;;5037025;28;20178;-55
2023/07/03 07:16:32;;;;;;;15.17;7.30;;;17.10;66.40;;;;;;5033416;28;20857;-56
2023/07/03 07:19:00;;;;;;;20.50;7.87;;;17.10;63.90;;;;;;5036004;28;20430;-56
2023/07/03 07:21:27;;;;;;;14.60;8.20;;;17.10;65.00;;;;;;5035425;28;20445;-57
2023/07/03 07:23:57;;;;;;;16.37;7.70;;;17.10;64.60;;;;;;5041510;28;20453;-55
2023/07/03 07:26:24;;;;;;;17.50;7.83;;;17.10;64.50;;;;;;5029020;28;20445;-59
2023/07/03 07:28:51;;;;;;;15.83;7.57;;;17.10;66.30;;;;;;5027662;28;20513;-58
2023/07/03 07:31:25;;;;;;;15.77;7.50;;;17.10;66.80;;;;;;5031265;28;20492;-59
2023/07/03 07:33:51;;;;;;;16.40;7.67;;;17.20;65.20;;;;;;5030550;28;20465;-59
2023/07/03 07:36:19;;;;;;;15.67;7.80;;;17.20;64.80;;;;;;5034428;28;20462;-58
2023/07/03 07:38:45;;;;;;;19.97;8.70;;;17.30;65.30;;;;;;5032322;28;20889;-58
2023/07/03 07:41:11;;;;;;;21.10;8.33;;;17.30;66.30;;;;;;5020609;28;20469;-59
2023/07/03 07:43:37;;;;;;;15.83;7.80;;;17.40;68.10;;;;;;5036104;28;20639;-56
2023/07/03 07:46:03;;;;;;;19.07;7.70;;;17.50;66.70;;;;;;5036873;28;20551;-53
2023/07/03 07:48:29;;;;;;;15.77;6.97;;;17.50;65.10;;;;;;5034727;28;20183;-60
2023/07/03 07:50:54;;;;;;;17.13;7.90;;;17.50;62.60;;;;;;5030522;28;20449;-61
2023/07/03 07:53:20;;;;;;;20.57;7.90;;;17.60;62.40;;;;;;5040533;28;20557;-59
2023/07/03 07:55:46;;;;;;;24.93;8.10;;;17.60;61.20;;;;;;5033877;28;20180;-60
2023/07/03 07:58:12;;;;;;;10.20;6.50;;;17.60;61.20;;;;;;5038904;28;20176;-58
2023/07/03 08:00:40;;;;;;;22.63;8.60;;;17.70;60.40;;;;;;5041869;28;20226;-58
2023/07/03 08:03:05;;;;;;;13.93;7.30;;;17.70;59.40;;;;;;5030757;28;20523;-59
2023/07/03 08:05:31;;;;;;;15.77;7.97;;;17.70;58.90;;;;;;5040925;28;20943;-59
2023/07/03 08:07:57;;;;;;;13.67;7.13;;;17.80;58.90;;;;;;5046613;28;20198;-60
2023/07/03 08:10:23;;;;;;;16.77;7.23;;;17.90;59.00;;;;;;5037400;28;20205;-59
2023/07/03 08:12:52;;;;;;;15.87;7.30;;;18.00;59.60;;;;;;5043427;28;20575;-61
2023/07/03 08:15:17;;;;;;;16.17;7.80;;;18.10;59.40;;;;;;5034022;28;20264;-61
2023/07/03 08:17:43;;;;;;;14.00;7.00;;;18.20;58.80;;;;;;5044025;28;20512;-61
2023/07/03 08:20:11;;;;;;;15.30;6.77;;;18.30;57.60;;;;;;5036667;28;20199;-60
2023/07/03 08:22:40;;;;;;;14.93;7.20;;;18.40;57.60;;;;;;5036692;28;20179;-62
2023/07/03 08:25:07;;;;;;;26.73;8.87;;;18.40;58.00;;;;;;5039369;28;20492;-60
2023/07/03 08:27:32;;;;;;;13.00;7.27;;;18.50;57.60;;;;;;5037545;28;20432;-60
2023/07/03 08:29:58;;;;;;;22.20;6.93;;;18.60;56.90;;;;;;5038874;28;20460;-60
2023/07/03 08:32:24;;;;;;;22.03;7.70;;;18.60;55.30;;;;;;5035306;28;20214;-60
2023/07/03 08:34:50;;;;;;;16.03;6.93;;;18.70;55.70;;;;;;5044746;28;20176;-60
2023/07/03 08:37:16;;;;;;;14.90;7.33;;;18.70;55.50;;;;;;5039050;28;20664;-60
2023/07/03 08:39:42;;;;;;;14.83;7.40;;;18.80;55.60;;;;;;5032096;28;20472;-59
2023/07/03 08:42:23;;;;;;;21.37;7.10;;;18.80;54.60;;;;;;5031848;28;20195;-61
2023/07/03 08:44:49;;;;;;;15.50;7.07;;;18.90;54.30;;;;;;5034223;28;20209;-58
2023/07/03 08:47:19;;;;;;;14.67;6.80;;;18.90;54.20;;;;;;5042951;28;20437;-58
2023/07/03 08:49:46;;;;;;;17.53;7.60;;;19.00;54.00;;;;;;5037598;28;20206;-60
2023/07/03 08:52:17;;;;;;;22.07;6.90;;;19.00;54.00;;;;;;5039705;28;20458;-60
2023/07/03 08:54:43;;;;;;;16.50;6.20;;;19.10;54.40;;;;;;5036494;28;20444;-62
2023/07/03 08:57:11;;;;;;;15.63;6.50;;;19.20;54.40;;;;;;5043720;28;20529;-57
2023/07/03 08:59:37;;;;;;;9.83;5.73;;;19.30;54.10;;;;;;5033285;28;20508;-57
2023/07/03 09:02:05;;;;;;;16.70;7.30;;;19.40;52.80;;;;;;5034300;28;20517;-56
2023/07/03 09:05:04;;;;;;;12.90;5.80;;;19.40;52.60;;;;;;5038004;28;20987;-50
2023/07/03 09:08:05;;;;;;;14.10;6.60;;;19.50;52.80;;;;;;5037795;28;20434;-62
2023/07/03 09:10:39;;;;;;;15.73;5.73;;;19.50;52.80;;;;;;5035688;28;20449;-60
2023/07/03 09:13:23;;;;;;;14.53;6.03;;;19.60;52.90;;;;;;5037048;28;20462;-61
2023/07/03 09:16:12;;;;;;;12.00;5.83;;;19.60;52.50;;;;;;5035715;28;20505;-59
2023/07/03 09:19:00;;;;;;;15.97;6.30;;;19.60;52.90;;;;;;5035656;28;20442;-58
2023/07/03 09:21:28;;;;;;;15.60;6.50;;;19.70;52.10;;;;;;5031798;28;20877;-60
2023/07/03 09:24:19;;;;;;;14.00;6.23;;;19.70;51.60;;;;;;5036917;28;21121;-61
2023/07/03 09:26:56;;;;;;;13.47;5.70;;;19.70;51.30;;;;;;5036155;28;20433;-60
2023/07/03 09:29:24;;;;;;;14.93;6.43;;;19.70;51.40;;;;;;5036542;28;20478;-61
2023/07/03 09:31:52;;;;;;;13.57;6.10;;;19.80;51.70;;;;;;5035373;28;20975;-60
2023/07/03 09:34:19;;;;;;;12.30;5.83;;;19.80;51.90;;;;;;5037528;28;20947;-61
2023/07/03 09:36:57;;;;;;;12.90;6.10;;;19.90;52.00;;;;;;5031209;28;20521;-60
2023/07/03 09:39:23;;;;;;;16.33;6.77;;;19.90;51.10;;;;;;5036410;28;21208;-60
2023/07/03 09:41:49;;;;;;;11.93;5.40;;;20.00;51.30;;;;;;5035177;28;20515;-60
2023/07/03 09:44:17;;;;;;;20.23;7.07;;;19.90;50.20;;;;;;5038912;28;20179;-59
2023/07/03 09:46:44;;;;;;;18.23;6.27;;;19.90;51.20;;;;;;5039988;28;20180;-60
2023/07/03 09:49:21;;;;;;;10.13;5.50;;;20.00;51.10;;;;;;5030984;28;20438;-61
2023/07/03 09:51:51;;;;;;;14.40;5.53;;;20.10;50.20;;;;;;5022618;28;20461;-63
2023/07/03 09:54:20;;;;;;;11.57;5.40;;;20.20;50.00;;;;;;5029217;28;20440;-62
2023/07/03 09:56:46;;;;;;;9.90;6.20;;;20.20;49.90;;;;;;5025712;28;20433;-62
2023/07/03 09:59:14;;;;;;;11.87;5.37;;;20.30;50.60;;;;;;5026377;28;20425;-62
2023/07/03 10:01:40;;;;;;;13.93;5.50;;;20.40;50.60;;;;;;5048228;28;20961;-63
2023/07/03 10:04:14;;;;;;;12.90;5.67;;;20.40;50.40;;;;;;5045743;28;20432;-62
2023/07/03 10:06:50;;;;;;;13.73;5.80;;;20.40;49.90;;;;;;5037089;28;20181;-64
2023/07/03 10:09:25;;;;;;;16.13;6.17;;;20.40;49.50;;;;;;5030391;28;20448;-58
2023/07/03 10:12:00;;;;;;;13.17;6.13;;;20.60;49.90;;;;;;5028132;28;20463;-56
2023/07/03 10:14:52;;;;;;;10.50;6.10;;;21.00;50.80;;;;;;5031877;28;20432;-57
2023/07/03 10:17:38;;;;;;;14.73;5.90;;;21.00;49.00;;;;;;5027372;28;20468;-59
2023/07/03 10:20:09;;;;;;;16.50;5.87;;;21.00;49.50;;;;;;5034967;28;21021;-56
2023/07/03 10:22:37;;;;;;;8.97;5.97;;;20.90;48.30;;;;;;5035774;28;20486;-58
2023/07/03 10:25:07;;;;;;;12.47;5.40;;;20.80;48.20;;;;;;5028589;28;20442;-55
2023/07/03 10:27:34;;;;;;;14.50;6.00;;;20.80;48.70;;;;;;5024564;28;20433;-56
2023/07/03 10:30:04;;;;;;;13.63;5.67;;;20.70;48.80;;;;;;5033406;28;20449;-55
2023/07/03 10:32:32;;;;;;;15.30;5.90;;;20.70;48.10;;;;;;5029728;28;20468;-56
2023/07/03 10:35:09;;;;;;;14.67;5.50;;;20.60;48.70;;;;;;5034496;28;20426;-56
2023/07/03 10:37:47;;;;;;;12.80;5.90;;;20.60;48.50;;;;;;5027974;28;20437;-58
2023/07/03 10:40:19;;;;;;;7.73;4.90;;;20.60;48.70;;;;;;5037036;28;20565;-59
2023/07/03 10:42:51;;;;;;;16.60;6.07;;;20.60;49.00;;;;;;5029191;28;20433;-59
2023/07/03 10:45:17;;;;;;;17.07;6.10;;;20.70;48.10;;;;;;5038494;28;20972;-58
2023/07/03 10:48:05;;;;;;;12.47;5.23;;;20.80;48.30;;;;;;5028309;28;20433;-57
2023/07/03 10:50:48;;;;;;;14.67;5.13;;;20.80;47.80;;;;;;5038669;28;20191;-58
2023/07/03 10:53:30;;;;;;;12.83;5.60;;;20.80;48.50;;;;;;5036178;28;20434;-57
2023/07/03 10:56:25;;;;;;;9.43;5.60;;;20.90;49.00;;;;;;5035100;28;20437;-59
2023/07/03 10:59:06;;;;;;;14.40;6.17;;;21.00;49.00;;;;;;5031276;28;20455;-57
2023/07/03 11:01:48;;;;;;;19.73;6.13;;;21.20;49.10;;;;;;5029262;28;20465;-60
2023/07/03 11:04:32;;;;;;;14.17;5.80;;;21.40;47.10;;;;;;5032543;28;20469;-63
2023/07/03 11:07:07;;;;;;;16.30;5.70;;;21.50;47.30;;;;;;5032004;28;20433;-63
2023/07/03 11:09:42;;;;;;;16.27;5.77;;;21.60;47.40;;;;;;5026827;28;20866;-63
2023/07/03 11:12:35;;;;;;;12.53;6.33;;;21.70;46.70;;;;;;5039759;28;20456;-63
2023/07/03 11:15:28;;;;;;;12.80;5.43;;;21.60;46.60;;;;;;5041572;28;20475;-63
2023/07/03 11:18:13;;;;;;;14.77;5.60;;;21.50;47.30;;;;;;5039002;28;20429;-62
2023/07/03 11:20:50;;;;;;;13.23;5.63;;;21.40;47.90;;;;;;5038980;28;20518;-64
2023/07/03 11:23:32;;;;;;;12.13;5.57;;;21.60;48.40;;;;;;5042733;28;20434;-63
2023/07/03 11:26:06;;;;;;;10.10;5.40;;;21.80;47.40;;;;;;5036062;28;21004;-63
2023/07/03 11:28:36;;;;;;;13.40;6.33;;;21.70;47.10;;;;;;5032553;28;20482;-62
2023/07/03 11:31:04;;;;;;;12.07;5.70;;;21.60;47.60;;;;;;5039685;28;20450;-63
2023/07/03 11:33:32;;;;;;;11.00;5.47;;;21.40;47.40;;;;;;5035349;28;21011;-63
2023/07/03 11:36:00;;;;;;;9.50;5.40;;;21.30;47.60;;;;;;5034149;28;20435;-63
2023/07/03 11:38:27;;;;;;;12.40;5.93;;;21.30;47.70;;;;;;5040207;28;20978;-63
2023/07/03 11:40:55;;;;;;;11.73;5.90;;;21.20;47.80;;;;;;5045401;28;20475;-63
2023/07/03 11:43:39;;;;;;;12.13;5.63;;;21.20;48.30;;;;;;5038417;28;20458;-65
2023/07/03 11:46:12;;;;;;;7.97;5.20;;;21.10;49.10;;;;;;5038270;28;20410;-64
2023/07/03 11:48:37;;;;;;;13.60;5.87;;;21.10;48.40;;;;;;5043981;28;20629;-63
2023/07/03 11:51:05;;;;;;;13.50;6.00;;;21.10;48.30;;;;;;5043739;28;21177;-63
2023/07/03 11:53:35;;;;;;;10.03;5.37;;;21.00;48.90;;;;;;5041218;28;20189;-63
2023/07/03 11:56:03;;;;;;;11.93;4.90;;;21.10;49.00;;;;;;5036923;28;20836;-63
2023/07/03 11:58:32;;;;;;;13.73;5.47;;;21.20;48.70;;;;;;5040377;28;20426;-63
2023/07/03 12:01:20;;;;;;;12.93;5.90;;;21.50;48.60;;;;;;5039339;28;20450;-62
2023/07/03 12:04:08;;;;;;;8.53;5.77;;;21.70;47.90;;;;;;5049798;28;20413;-63
2023/07/03 12:06:40;;;;;;;10.00;5.60;;;21.70;47.20;;;;;;5036664;28;20450;-63
2023/07/03 12:09:20;;;;;;;9.23;4.70;;;21.70;46.50;;;;;;5036369;28;20430;-63
2023/07/03 12:12:06;;;;;;;11.50;5.77;;;21.60;46.60;;;;;;5046710;28;20471;-63
2023/07/03 12:14:44;;;;;;;11.10;5.07;;;21.50;46.50;;;;;;5038480;28;20510;-63
2023/07/03 12:17:22;;;;;;;13.70;5.40;;;21.50;47.40;;;;;;5041063;28;20432;-62
2023/07/03 12:19:49;;;;;;;13.00;5.60;;;21.50;47.80;;;;;;5034964;28;20483;-63
2023/07/03 12:22:18;;;;;;;14.43;6.00;;;21.60;47.20;;;;;;5040052;28;20440;-64
2023/07/03 12:24:45;;;;;;;8.03;5.17;;;21.80;47.50;;;;;;5047451;28;20425;-63
2023/07/03 12:27:11;;;;;;;11.77;5.63;;;21.90;47.30;;;;;;5042793;28;20437;-63
2023/07/03 12:29:45;;;;;;;14.60;5.57;;;21.90;47.20;;;;;;5040655;28;20445;-64
2023/07/03 12:32:11;;;;;;;10.03;4.83;;;21.90;47.50;;;;;;5034546;28;20845;-63
2023/07/03 12:34:42;;;;;;;11.50;5.10;;;21.80;47.30;;;;;;5041140;28;20433;-62
2023/07/03 12:37:20;;;;;;;11.37;5.23;;;21.70;47.30;;;;;;5041591;28;20423;-62
2023/07/03 12:39:48;;;;;;;11.07;5.20;;;21.60;48.10;;;;;;5039004;28;20454;-62
2023/07/03 12:42:23;;;;;;;8.07;4.70;;;21.50;47.30;;;;;;5041950;28;20651;-62
2023/07/03 12:44:49;;;;;;;11.20;5.50;;;21.50;47.00;;;;;;5043124;28;20432;-63
2023/07/03 12:47:17;;;;;;;10.93;5.10;;;21.50;47.40;;;;;;5041757;28;20762;-63